createdAt,value
2022-12-20T00:00:19.573Z,14.90
2022-12-20T00:03:13.265Z,14.40
2022-12-20T00:05:47.514Z,13.90
2022-12-20T00:08:21.216Z,14.80
2022-12-20T00:10:57.375Z,14.40
2022-12-20T00:13:32.205Z,16.50
2022-12-20T00:16:12.403Z,15.00
2022-12-20T00:18:46.676Z,13.90
2022-12-20T00:21:21.051Z,15.40
2022-12-20T00:23:55.768Z,13.90
2022-12-20T00:26:32.191Z,13.10
2022-12-20T00:29:06.813Z,14.70
2022-12-20T00:31:40.532Z,15.80
2022-12-20T00:34:14.330Z,15.40
2022-12-20T00:36:53.415Z,13.80
2022-12-20T00:39:27.329Z,15.90
2022-12-20T00:42:00.928Z,14.70
2022-12-20T00:44:34.639Z,13.90
2022-12-20T00:47:08.555Z,14.30
2022-12-20T00:49:42.504Z,14.10
2022-12-20T00:52:16.099Z,14.20
2022-12-20T00:54:49.865Z,13.60
2022-12-20T00:57:23.518Z,14.20
2022-12-20T00:59:57.038Z,13.60
2022-12-20T01:05:03.251Z,14.70
2022-12-20T01:10:12.155Z,13.90
2022-12-20T01:12:45.804Z,12.70
2022-12-20T01:15:21.560Z,13.30
2022-12-20T01:17:55.528Z,13.50
2022-12-20T01:20:29.520Z,13.20
2022-12-20T01:23:03.175Z,13.10
2022-12-20T01:25:36.835Z,14.20
2022-12-20T01:28:10.811Z,13.50
2022-12-20T01:30:46.338Z,13.40
2022-12-20T01:33:20.617Z,13.70
2022-12-20T01:36:02.709Z,13.80
2022-12-20T01:38:37.804Z,13.30
2022-12-20T01:41:12.313Z,12.10
2022-12-20T01:43:55.713Z,13.40
2022-12-20T01:46:31.463Z,13.50
2022-12-20T01:49:11.031Z,12.90
2022-12-20T01:51:48.785Z,12.50
2022-12-20T01:54:26.689Z,13.00
2022-12-20T01:57:04.066Z,12.40
2022-12-20T01:59:43.205Z,12.00
2022-12-20T02:02:17.548Z,12.60
2022-12-20T02:04:51.894Z,12.10
2022-12-20T02:07:30.058Z,13.80
2022-12-20T02:10:06.230Z,12.40
2022-12-20T02:12:43.987Z,12.40
2022-12-20T02:15:33.650Z,11.50
2022-12-20T02:18:21.099Z,12.10
2022-12-20T02:21:21.017Z,11.60
2022-12-20T02:24:20.243Z,12.20
2022-12-20T02:27:44.091Z,13.70
2022-12-20T02:30:21.696Z,11.80
2022-12-20T02:33:02.144Z,11.20
2022-12-20T02:35:38.664Z,12.90
2022-12-20T02:38:31.807Z,12.00
2022-12-20T02:41:13.648Z,12.30
2022-12-20T02:44:10.059Z,11.50
2022-12-20T02:46:44.963Z,12.00
2022-12-20T02:49:22.347Z,12.70
2022-12-20T02:51:58.004Z,11.80
2022-12-20T02:54:33.150Z,11.50
2022-12-20T02:57:14.366Z,10.60
2022-12-20T02:59:58.607Z,10.90
2022-12-20T03:02:54.204Z,11.20
2022-12-20T03:05:30.378Z,11.30
2022-12-20T03:08:04.240Z,12.80
2022-12-20T03:10:37.892Z,11.80
2022-12-20T03:13:11.491Z,10.50
2022-12-20T03:15:45.457Z,10.40
2022-12-20T03:18:19.227Z,12.00
2022-12-20T03:20:52.769Z,10.40
2022-12-20T03:23:26.673Z,10.30
2022-12-20T03:26:01.203Z,10.50
2022-12-20T03:28:34.801Z,10.90
2022-12-20T03:31:09.409Z,12.40
2022-12-20T03:33:43.132Z,10.20
2022-12-20T03:38:48.855Z,9.90
2022-12-20T03:43:55.452Z,11.30
2022-12-20T03:46:29.689Z,10.00
2022-12-20T03:49:03.527Z,11.20
2022-12-20T03:51:37.280Z,10.40
2022-12-20T03:54:11.141Z,10.80
2022-12-20T03:56:44.899Z,10.20
2022-12-20T03:59:19.630Z,10.80
2022-12-20T04:01:53.391Z,10.50
2022-12-20T04:04:27.800Z,10.00
2022-12-20T04:07:02.889Z,10.20
2022-12-20T04:09:36.650Z,10.10
2022-12-20T04:12:11.222Z,10.50
2022-12-20T04:14:44.824Z,11.10
2022-12-20T04:17:19.145Z,10.40
2022-12-20T04:19:55.462Z,10.60
2022-12-20T04:22:29.170Z,10.80
2022-12-20T04:25:02.710Z,10.30
2022-12-20T04:27:36.680Z,9.30
2022-12-20T04:30:13.358Z,9.80
2022-12-20T04:32:47.315Z,9.50
2022-12-20T04:35:21.346Z,9.50
2022-12-20T04:37:54.827Z,9.60
2022-12-20T04:40:28.586Z,9.10
2022-12-20T04:43:02.080Z,10.20
2022-12-20T04:45:36.171Z,9.60
2022-12-20T04:48:46.272Z,10.60
2022-12-20T04:51:04.771Z,8.80
2022-12-20T04:53:50.472Z,9.70
2022-12-20T04:56:27.888Z,10.30
2022-12-20T04:59:02.686Z,10.10
2022-12-20T05:01:36.945Z,10.00
2022-12-20T05:04:10.916Z,8.90
2022-12-20T05:06:44.985Z,9.60
2022-12-20T05:09:18.794Z,9.70
2022-12-20T05:11:53.018Z,9.40
2022-12-20T05:14:26.819Z,9.80
2022-12-20T05:17:00.831Z,9.50
2022-12-20T05:19:34.588Z,9.80
2022-12-20T05:22:25.692Z,9.10
2022-12-20T05:25:17.106Z,8.50
2022-12-20T05:27:50.496Z,9.00
2022-12-20T05:32:57.294Z,9.00
2022-12-20T05:35:31.325Z,8.40
2022-12-20T05:38:05.316Z,8.30
2022-12-20T05:40:38.973Z,9.80
2022-12-20T05:43:13.250Z,8.60
2022-12-20T05:45:50.268Z,8.20
2022-12-20T05:48:24.892Z,8.70
2022-12-20T05:51:00.397Z,8.60
2022-12-20T05:53:34.210Z,9.50
2022-12-20T05:56:08.475Z,8.60
2022-12-20T05:58:41.977Z,9.20
2022-12-20T06:01:15.424Z,9.00
2022-12-20T06:06:21.510Z,8.60
2022-12-20T06:08:56.344Z,8.80
2022-12-20T06:11:30.657Z,9.80
2022-12-20T06:14:04.763Z,9.70
2022-12-20T06:16:38.850Z,9.40
2022-12-20T06:19:17.528Z,10.10
2022-12-20T06:21:54.756Z,9.70
2022-12-20T06:24:28.913Z,9.40
2022-12-20T06:27:04.912Z,8.20
2022-12-20T06:29:38.414Z,9.70
2022-12-20T06:32:12.302Z,8.80
2022-12-20T06:34:46.232Z,9.80
2022-12-20T06:37:19.943Z,8.40
2022-12-20T06:39:53.637Z,8.00
2022-12-20T06:42:27.494Z,9.20
2022-12-20T06:45:01.163Z,9.40
2022-12-20T06:47:35.064Z,9.10
2022-12-20T06:50:11.326Z,8.80
2022-12-20T06:52:45.086Z,8.60
2022-12-20T06:55:19.259Z,9.10
2022-12-20T06:57:56.797Z,9.40
2022-12-20T07:00:31.624Z,9.10
2022-12-20T07:03:05.588Z,8.80
2022-12-20T07:05:42.571Z,9.90
2022-12-20T07:08:16.227Z,8.90
2022-12-20T07:10:50.286Z,8.50
2022-12-20T07:13:24.153Z,9.30
2022-12-20T07:16:03.921Z,8.50
2022-12-20T07:18:37.692Z,8.80
2022-12-20T07:21:14.229Z,9.10
2022-12-20T07:23:48.021Z,8.30
2022-12-20T07:26:21.841Z,8.70
2022-12-20T07:28:55.482Z,8.50
2022-12-20T07:31:29.515Z,8.70
2022-12-20T07:34:03.378Z,9.10
2022-12-20T07:36:37.165Z,9.80
2022-12-20T07:39:11.182Z,8.60
2022-12-20T07:41:45.110Z,9.40
2022-12-20T07:44:18.819Z,10.70
2022-12-20T07:46:52.806Z,9.00
2022-12-20T07:49:26.613Z,8.90
2022-12-20T07:52:04.862Z,9.10
2022-12-20T07:54:47.129Z,9.10
2022-12-20T07:57:27.377Z,9.80
2022-12-20T08:00:03.924Z,9.20
2022-12-20T08:02:41.182Z,8.90
2022-12-20T08:05:24.619Z,9.40
2022-12-20T08:08:01.242Z,10.20
2022-12-20T08:10:35.401Z,9.70
2022-12-20T08:13:10.287Z,9.10
2022-12-20T08:15:44.653Z,9.80
2022-12-20T08:18:18.100Z,9.10
2022-12-20T08:23:24.082Z,9.60
2022-12-20T08:25:58.248Z,9.20
2022-12-20T08:28:32.464Z,9.50
2022-12-20T08:31:09.455Z,9.80
2022-12-20T08:33:43.609Z,8.90
2022-12-20T08:36:18.340Z,9.30
2022-12-20T08:38:52.301Z,10.80
2022-12-20T08:41:26.111Z,9.70
2022-12-20T08:43:59.763Z,10.20
2022-12-20T08:46:33.981Z,8.70
2022-12-20T08:49:07.789Z,9.40
2022-12-20T08:51:41.669Z,10.00
2022-12-20T08:54:15.652Z,10.30
2022-12-20T08:56:49.469Z,9.30
2022-12-20T08:59:23.683Z,10.60
2022-12-20T09:01:57.391Z,9.80
2022-12-20T09:04:31.760Z,9.50
2022-12-20T09:07:05.628Z,10.50
2022-12-20T09:09:39.276Z,10.20
2022-12-20T09:12:12.843Z,10.20
2022-12-20T09:14:46.742Z,10.00
2022-12-20T09:17:20.338Z,9.20
2022-12-20T09:19:55.378Z,10.70
2022-12-20T09:22:31.655Z,10.20
2022-12-20T09:25:07.227Z,11.20
2022-12-20T09:27:41.475Z,10.80
2022-12-20T09:30:20.381Z,12.20
2022-12-20T09:32:54.803Z,11.40
2022-12-20T09:35:29.124Z,11.50
2022-12-20T09:38:03.550Z,11.30
2022-12-20T09:40:38.853Z,11.80
2022-12-20T09:43:15.298Z,12.90
2022-12-20T09:45:53.212Z,12.50
2022-12-20T09:48:32.083Z,12.90
2022-12-20T09:51:27.118Z,12.30
2022-12-20T09:54:13.509Z,12.20
2022-12-20T09:56:58.384Z,14.10
2022-12-20T09:59:38.963Z,13.70
2022-12-20T10:05:27.095Z,13.60
2022-12-20T10:08:15.769Z,12.10
2022-12-20T10:10:58.331Z,12.40
2022-12-20T10:13:55.620Z,11.00
2022-12-20T10:16:44.330Z,12.30
2022-12-20T10:19:44.839Z,12.60
2022-12-20T10:22:25.093Z,12.60
2022-12-20T10:25:14.764Z,12.40
2022-12-20T10:27:51.129Z,12.00
2022-12-20T10:30:29.002Z,13.50
2022-12-20T10:33:04.081Z,12.70
2022-12-20T10:35:43.501Z,11.80
2022-12-20T10:38:19.204Z,13.10
2022-12-20T10:41:22.672Z,11.70
2022-12-20T10:44:05.037Z,13.50
2022-12-20T10:46:46.512Z,11.90
2022-12-20T10:49:37.205Z,12.80
2022-12-20T10:52:18.366Z,12.60
2022-12-20T10:54:52.363Z,12.00
2022-12-20T10:57:28.600Z,13.40
2022-12-20T11:00:06.310Z,14.10
2022-12-20T11:02:43.389Z,14.00
2022-12-20T11:05:28.764Z,13.70
2022-12-20T11:08:36.290Z,13.40
2022-12-20T11:11:22.178Z,13.10
2022-12-20T11:13:56.648Z,12.60
2022-12-20T11:16:40.123Z,14.10
2022-12-20T11:19:43.356Z,14.20
2022-12-20T11:22:30.471Z,14.10
2022-12-20T11:25:25.240Z,15.30
2022-12-20T11:28:22.297Z,13.00
2022-12-20T11:31:06.515Z,13.10
2022-12-20T11:34:05.161Z,12.90
2022-12-20T11:36:57.389Z,14.10
2022-12-20T11:39:42.303Z,13.70
2022-12-20T11:42:29.373Z,13.30
2022-12-20T11:45:11.813Z,13.80
2022-12-20T11:48:16.168Z,12.40
2022-12-20T11:51:13.368Z,13.00
2022-12-20T11:53:58.618Z,13.60
2022-12-20T11:56:43.471Z,14.30
2022-12-20T11:59:30.192Z,13.60
2022-12-20T12:02:10.732Z,13.10
2022-12-20T12:04:52.053Z,12.90
2022-12-20T12:07:30.317Z,11.70
2022-12-20T12:10:11.157Z,12.60
2022-12-20T12:12:48.273Z,12.60
2022-12-20T12:15:32.648Z,13.30
2022-12-20T12:18:16.080Z,12.70
2022-12-20T12:20:56.216Z,13.00
2022-12-20T12:23:37.316Z,13.70
2022-12-20T12:26:17.020Z,13.20
2022-12-20T12:28:55.934Z,13.70
2022-12-20T12:31:39.674Z,12.40
2022-12-20T12:34:30.750Z,12.20
2022-12-20T12:37:58.890Z,13.30
2022-12-20T12:41:10.720Z,13.60
2022-12-20T12:43:53.425Z,14.30
2022-12-20T12:46:31.757Z,11.90
2022-12-20T12:49:08.311Z,12.60
2022-12-20T12:51:51.500Z,11.90
2022-12-20T12:54:28.713Z,13.30
2022-12-20T12:57:11.995Z,13.10
2022-12-20T12:59:48.643Z,12.80
2022-12-20T13:02:52.771Z,12.30
2022-12-20T13:05:39.716Z,13.40
2022-12-20T13:08:21.258Z,12.10
2022-12-20T13:11:04.836Z,12.70
2022-12-20T13:17:09.358Z,13.80
2022-12-20T13:19:38.355Z,13.10
2022-12-20T13:22:25.961Z,12.10
2022-12-20T13:25:04.208Z,13.40
2022-12-20T13:27:43.319Z,14.20
2022-12-20T13:30:34.177Z,12.60
2022-12-20T13:33:42.120Z,12.10
2022-12-20T13:36:37.393Z,12.10
2022-12-20T13:39:35.498Z,13.30
2022-12-20T13:42:34.650Z,13.40
2022-12-20T13:45:15.532Z,12.20
2022-12-20T13:47:53.882Z,12.40
2022-12-20T13:50:35.739Z,11.40
2022-12-20T13:53:18.230Z,12.80
2022-12-20T13:55:52.793Z,13.00
2022-12-20T13:58:32.898Z,13.00
2022-12-20T14:01:14.254Z,11.10
2022-12-20T14:03:52.082Z,12.40
2022-12-20T14:06:28.454Z,12.80
2022-12-20T14:09:03.739Z,12.90
2022-12-20T14:11:48.996Z,12.60
2022-12-20T14:14:23.283Z,11.70
2022-12-20T14:16:57.627Z,12.50
2022-12-20T14:19:31.714Z,11.60
2022-12-20T14:22:05.874Z,13.40
2022-12-20T14:24:43.058Z,12.80
2022-12-20T14:27:18.636Z,11.70
2022-12-20T14:29:53.443Z,13.60
2022-12-20T14:32:27.362Z,12.40
2022-12-20T14:35:01.718Z,12.50
2022-12-20T14:37:42.795Z,12.00
2022-12-20T14:40:24.529Z,11.70
2022-12-20T14:42:59.061Z,12.20
2022-12-20T14:45:35.054Z,13.80
2022-12-20T14:48:18.592Z,11.90
2022-12-20T14:50:57.890Z,11.80
2022-12-20T14:53:31.935Z,11.50
2022-12-20T14:56:06.437Z,10.90
2022-12-20T14:58:42.640Z,12.80
2022-12-20T15:01:28.723Z,12.50
2022-12-20T15:04:17.159Z,12.00
2022-12-20T15:06:52.765Z,11.30
2022-12-20T15:09:26.821Z,11.90
2022-12-20T15:15:24.036Z,11.70
2022-12-20T15:17:56.133Z,11.70
2022-12-20T15:20:30.049Z,12.50
2022-12-20T15:23:05.029Z,11.70
2022-12-20T15:25:44.141Z,12.60
2022-12-20T15:28:22.628Z,12.10
2022-12-20T15:30:57.671Z,12.20
2022-12-20T15:33:39.299Z,11.90
2022-12-20T15:36:20.224Z,13.20
2022-12-20T15:39:12.613Z,12.80
2022-12-20T15:41:50.912Z,13.80
2022-12-20T15:44:28.179Z,13.10
2022-12-20T15:47:02.624Z,12.10
2022-12-20T15:49:37.629Z,13.90
2022-12-20T15:52:14.050Z,14.10
2022-12-20T15:54:48.672Z,14.90
2022-12-20T15:57:22.889Z,14.00
2022-12-20T16:00:02.174Z,13.50
2022-12-20T16:02:37.549Z,13.90
2022-12-20T16:05:15.882Z,13.60
2022-12-20T16:07:49.672Z,12.80
2022-12-20T16:10:25.929Z,13.80
2022-12-20T16:12:59.997Z,13.60
2022-12-20T16:15:37.031Z,14.80
2022-12-20T16:18:11.043Z,14.40
2022-12-20T16:20:45.225Z,13.50
2022-12-20T16:23:22.991Z,14.00
2022-12-20T16:25:56.684Z,14.50
2022-12-20T16:28:31.236Z,13.20
2022-12-20T16:31:19.502Z,13.40
2022-12-20T16:33:53.845Z,14.30
2022-12-20T16:36:28.497Z,14.00
2022-12-20T16:39:02.813Z,14.60
2022-12-20T16:41:38.067Z,15.00
2022-12-20T16:44:17.536Z,15.10
2022-12-20T16:46:52.053Z,15.90
2022-12-20T16:49:25.984Z,16.20
2022-12-20T16:52:00.244Z,15.50
2022-12-20T16:54:35.158Z,13.30
2022-12-20T16:57:09.738Z,14.90
2022-12-20T16:59:43.635Z,15.30
2022-12-20T17:02:29.952Z,16.70
2022-12-20T17:05:08.402Z,15.90
2022-12-20T17:07:42.575Z,17.10
2022-12-20T17:10:17.399Z,15.60
2022-12-20T17:12:52.054Z,17.20
2022-12-20T17:15:29.567Z,14.10
2022-12-20T17:18:04.261Z,15.40
2022-12-20T17:20:38.269Z,15.10
2022-12-20T17:26:11.202Z,17.20
2022-12-20T17:28:45.138Z,15.80
2022-12-20T17:31:29.361Z,16.10
2022-12-20T17:34:04.669Z,17.80
2022-12-20T17:36:38.517Z,14.90
2022-12-20T17:39:12.163Z,15.70
2022-12-20T17:41:47.018Z,15.90
2022-12-20T17:44:23.577Z,17.60
2022-12-20T17:46:58.773Z,17.30
2022-12-20T17:49:33.179Z,16.80
2022-12-20T17:52:07.293Z,15.60
2022-12-20T17:54:41.008Z,18.10
2022-12-20T17:57:18.712Z,16.80
2022-12-20T17:59:52.557Z,16.50
2022-12-20T18:02:28.425Z,17.80
2022-12-20T18:05:03.404Z,18.10
2022-12-20T18:07:37.154Z,16.20
2022-12-20T18:10:13.161Z,15.80
2022-12-20T18:12:46.966Z,17.40
2022-12-20T18:15:21.242Z,17.00
2022-12-20T18:17:54.997Z,17.50
2022-12-20T18:20:28.749Z,16.20
2022-12-20T18:23:02.484Z,14.70
2022-12-20T18:25:36.992Z,14.60
2022-12-20T18:28:10.942Z,15.50
2022-12-20T18:30:45.109Z,17.60
2022-12-20T18:33:18.766Z,15.90
2022-12-20T18:35:52.441Z,15.40
2022-12-20T18:38:26.382Z,14.60
2022-12-20T18:41:03.981Z,15.90
2022-12-20T18:43:41.532Z,16.60
2022-12-20T18:46:18.230Z,16.90
2022-12-20T18:48:55.853Z,16.10
2022-12-20T18:51:32.854Z,14.60
2022-12-20T18:54:08.320Z,14.00
2022-12-20T18:56:43.514Z,16.30
2022-12-20T18:59:17.533Z,15.10
2022-12-20T19:01:52.774Z,15.20
2022-12-20T19:04:26.728Z,15.40
2022-12-20T19:07:00.702Z,13.60
2022-12-20T19:09:37.469Z,15.00
2022-12-20T19:12:14.495Z,16.60
2022-12-20T19:14:48.308Z,14.20
2022-12-20T19:17:22.261Z,14.70
2022-12-20T19:19:56.430Z,14.30
2022-12-20T19:22:30.240Z,15.10
2022-12-20T19:25:04.258Z,13.40
2022-12-20T19:27:37.957Z,14.30
2022-12-20T19:30:14.276Z,14.50
2022-12-20T19:32:48.629Z,14.60
2022-12-20T19:35:54.087Z,14.40
2022-12-20T19:38:17.302Z,14.70
2022-12-20T19:40:56.592Z,15.00
2022-12-20T19:43:30.340Z,14.00
2022-12-20T19:46:04.215Z,15.20
2022-12-20T19:48:38.631Z,14.70
2022-12-20T19:51:15.770Z,14.80
2022-12-20T19:53:51.861Z,14.90
2022-12-20T19:56:28.172Z,15.70
2022-12-20T19:59:02.368Z,13.50
2022-12-20T20:01:36.600Z,16.40
2022-12-20T20:04:10.513Z,15.00
2022-12-20T20:06:44.993Z,13.40
2022-12-20T20:09:18.695Z,14.70
2022-12-20T20:11:52.706Z,13.60
2022-12-20T20:14:26.568Z,15.10
2022-12-20T20:17:00.180Z,14.20
2022-12-20T20:19:34.572Z,13.40
2022-12-20T20:22:10.762Z,15.10
2022-12-20T20:24:45.246Z,13.90
2022-12-20T20:27:18.983Z,15.00
2022-12-20T20:29:54.393Z,15.20
2022-12-20T20:32:27.986Z,14.10
2022-12-20T20:35:01.736Z,14.20
2022-12-20T20:37:35.698Z,14.00
2022-12-20T20:40:12.530Z,13.60
2022-12-20T20:42:46.234Z,15.00
2022-12-20T20:45:20.140Z,13.50
2022-12-20T20:47:54.801Z,12.80
2022-12-20T20:50:28.703Z,13.00
2022-12-20T20:53:02.368Z,13.90
2022-12-20T20:55:36.043Z,15.40
2022-12-20T20:58:09.845Z,13.90
2022-12-20T21:00:43.742Z,14.00
2022-12-20T21:03:18.608Z,14.70
2022-12-20T21:06:33.089Z,15.00
2022-12-20T21:08:46.528Z,15.60
2022-12-20T21:11:20.288Z,15.40
2022-12-20T21:13:56.291Z,14.20
2022-12-20T21:16:30.131Z,15.10
2022-12-20T21:19:03.803Z,15.30
2022-12-20T21:21:37.345Z,15.50
2022-12-20T21:24:11.572Z,14.40
2022-12-20T21:26:45.267Z,14.20
2022-12-20T21:29:19.895Z,16.70
2022-12-20T21:31:53.706Z,15.10
2022-12-20T21:34:27.638Z,15.00
2022-12-20T21:37:01.237Z,13.60
2022-12-20T21:39:35.037Z,14.20
2022-12-20T21:42:08.703Z,13.00
2022-12-20T21:44:42.358Z,13.40
2022-12-20T21:47:16.146Z,13.20
2022-12-20T21:49:49.871Z,13.30
2022-12-20T21:52:23.762Z,14.30
2022-12-20T21:54:57.469Z,14.20
2022-12-20T21:57:31.139Z,14.90
2022-12-20T22:00:05.897Z,13.70
2022-12-20T22:02:39.625Z,15.00
2022-12-20T22:05:15.670Z,13.80
2022-12-20T22:07:51.117Z,12.80
2022-12-20T22:10:25.227Z,15.30
2022-12-20T22:12:59.336Z,13.80
2022-12-20T22:15:33.610Z,13.10
2022-12-20T22:18:08.765Z,14.30
2022-12-20T22:20:46.899Z,12.90
2022-12-20T22:23:21.277Z,15.20
2022-12-20T22:25:55.951Z,13.80
2022-12-20T22:28:29.814Z,12.70
2022-12-20T22:31:03.774Z,13.10
2022-12-20T22:33:43.472Z,14.10
2022-12-20T22:36:19.288Z,13.70
2022-12-20T22:38:56.245Z,14.30
2022-12-20T22:41:32.767Z,13.20
2022-12-20T22:44:07.239Z,13.10
2022-12-20T22:46:41.576Z,14.60
2022-12-20T22:49:20.564Z,14.60
2022-12-20T22:52:06.914Z,14.40
2022-12-20T22:54:42.031Z,14.10
2022-12-20T22:57:15.839Z,14.80
2022-12-20T22:59:49.801Z,12.80
2022-12-20T23:02:26.252Z,14.00
2022-12-20T23:05:01.146Z,13.60
2022-12-20T23:07:35.307Z,14.70
2022-12-20T23:10:31.696Z,13.30
2022-12-20T23:13:22.999Z,12.10
2022-12-20T23:15:56.755Z,12.60
2022-12-20T23:18:30.551Z,13.90
2022-12-20T23:21:22.271Z,12.70
2022-12-20T23:23:56.607Z,13.10
2022-12-20T23:26:31.264Z,14.00
2022-12-20T23:29:06.056Z,13.90
2022-12-20T23:31:40.811Z,12.60
2022-12-20T23:34:15.147Z,12.90
2022-12-20T23:36:49.265Z,11.90
2022-12-20T23:39:23.686Z,12.40
2022-12-20T23:41:57.989Z,13.70
2022-12-20T23:44:32.629Z,13.00
2022-12-20T23:47:07.453Z,12.40
2022-12-20T23:49:41.627Z,13.40
2022-12-20T23:52:18.362Z,13.10
2022-12-20T23:54:53.045Z,13.00
2022-12-20T23:57:27.237Z,13.80
